Startpagina
METAR-TAF:

METAR-TAF

Vliegvelden :

Vliegbasis Gilze-Rijen

Gilze-Rijen, Nederland

breedte: 51-34N, lengte: 004-56E, hoogte: 15 m

Actueel weer

Dit bericht is 25 minuten geleden gemaakt, om 05:13 UTC
Wind 1 kt uit het noorden
Temperatuur -5°C
Vochtigheid 100%
Druk 1027 hPa
Zicht 10 km of meer

METAR: EHGR 070513Z AUTO 35001KT 9999 NCD M05/M05 Q1027 BLU

Tijdstip: 06:38 (05:38 UTC)


TAF: ontbreekt

Waarnemingen en weersverwachtingen van meer dan 4000 vliegvelden (METAR en TAF).

De beschikbare stations zijn de gele en rode punten op de kaart.

Ga met uw muis naar het station om de naam te zien.

Klik dan om waarnemingen en weersverwachtingen te zien.

kaart wijzigen: klik op de groene knoppen met een zwart kruis om in te zoomen, op de groene knop met een streepje om uit te zoomen of op de groene pijlen voor aangrenzende kaarten.


METAR-TAF: